Sunday, September 23, 2018, 4:30 AM GMT
Back to Local

CYFC, Fredericton, N. B.

Location: , , Canada Lat: 45.867
Local Time: 4:30 AM GMT ( 4:30 GMT) Lon: -66.533
Time Zone: GMT Elev: 55 ft

Show me the last for .
Show Decoded

2018-09-23 04:00 METAR CYFC 230400Z AUTO 20006KT 9SM CLR 03/02 A3018 RMK SLP221 =
2018-09-23 03:00 METAR CYFC 230300Z AUTO 19005KT 9SM CLR 03/02 A3016 RMK SLP216 =
2018-09-23 02:00 METAR CYFC 230200Z AUTO 23006KT 9SM CLR 05/03 A3015 RMK SLP212 =
2018-09-23 01:00 METAR CYFC 230100Z AUTO 22006KT 9SM CLR 05/04 A3014 RMK SLP209 =
2018-09-23 00:00 METAR CYFC 230000Z AUTO 00000KT 9SM CLR 08/04 A3011 RMK SLP198 =
2018-09-22 23:00 METAR CYFC 222300Z AUTO 26004KT 9SM CLR 09/05 A3008 RMK SLP188 =
2018-09-22 22:00 METAR CYFC 222200Z AUTO 27003KT 9SM CLR 14/03 A3006 RMK SLP181 =
2018-09-22 21:00 METAR CYFC 222100Z AUTO 31011G16KT 9SM CLR 15/01 A3004 RMK SLP174 =
2018-09-22 20:00 METAR CYFC 222000Z AUTO 31014G21KT 9SM CLR 15/02 A3001 RMK SLP166 =
2018-09-22 19:00 METAR CYFC 221900Z AUTO 32014G23KT 9SM CLR 16/01 A3000 RMK SLP160 DENSITY ALT
                 100FT =
2018-09-22 18:00 METAR CYFC 221800Z AUTO 29014G23KT 270V340 9SM CLR 16/01 A2996 RMK SLP148
                 DENSITY ALT 100FT =
2018-09-22 17:00 METAR CYFC 221700Z AUTO 31016G24KT 270V330 9SM CLR 17/03 A2994 RMK SLP142
                 DENSITY ALT 200FT =
2018-09-22 16:00 METAR CYFC 221600Z AUTO 31017G26KT 9SM CLR 16/04 A2991 RMK SLP131 DENSITY ALT
                 100FT =
2018-09-22 15:00 METAR CYFC 221500Z AUTO 30014G26KT 9SM FEW047 16/06 A2988 RMK SLP119 DENSITY ALT
                 200FT =
2018-09-22 14:00 METAR CYFC 221400Z AUTO 30020G32KT 9SM FEW038 17/07 A2983 RMK SLP103 DENSITY ALT
                 400FT =
2018-09-22 13:00 METAR CYFC 221300Z AUTO 26016G26KT 240V300 9SM FEW043 18/10 A2977 RMK PRESRR
                 SLP082 DENSITY ALT 600FT =
2018-09-22 12:00 METAR CYFC 221200Z AUTO 29012G23KT 250V310 9SM FEW028 SCT033 BKN042 OVC065 18/14
                 A2971 RMK PRESRR SLP062 DENSITY ALT 600FT =
2018-09-22 11:00 METAR CYFC 221100Z AUTO 22013G18KT 9SM BKN095 18/17 A2965 RMK SLP042 DENSITY ALT
                 700FT =
2018-09-22 10:27 METAR CYFC 221027Z AUTO 21014G22KT 9SM SCT014 SCT022 OVC090 18/17 A2963 RMK
                 SLP036 DENSITY ALT 700FT =
2018-09-22 10:00 METAR CYFC 221000Z AUTO 22011G17KT 9SM BKN011 BKN027 17/16 A2963 RMK PRESRR
                 SLP034 DENSITY ALT 600FT =
2018-09-22 09:54 METAR CYFC 220954Z AUTO 22011G21KT 9SM BKN011 BKN027 BKN090 17/16 A2962 RMK
                 SLP033 DENSITY ALT 600FT =
2018-09-22 09:00 METAR CYFC 220900Z AUTO 20016KT 9SM FEW011 BKN070 OVC130 17/16 A2961 RMK SLP027
                 DENSITY ALT 600FT =
2018-09-22 08:38 METAR CYFC 220838Z AUTO 20016G23KT 9SM FEW014 SCT060 BKN071 OVC130 17/16 A2961
                 RMK SLP029 DENSITY ALT 600FT =
2018-09-22 08:17 METAR CYFC 220817Z AUTO 19016KT 9SM -RA SCT012 BKN032 BKN075 OVC087 17/16 A2962
                 RMK SLP030 DENSITY ALT 600FT =
2018-09-22 08:00 METAR CYFC 220800Z AUTO 19015G20KT 8SM -RA SCT010 BKN015 BKN026 OVC085 16/16
                 A2962 RMK SLP030 DENSITY ALT 500FT =
2018-09-22 07:48 METAR CYFC 220748Z AUTO 20016G23KT 6SM -RA BR BKN012 BKN018 OVC065 16/16 A2963
                 RMK SLP034 DENSITY ALT 500FT =
2018-09-22 07:00 METAR CYFC 220700Z AUTO 20013G20KT 5SM -RA BR OVC016 16/15 A2965 RMK SLP041
                 DENSITY ALT 400FT =
2018-09-22 06:44 METAR CYFC 220644Z AUTO 19014G22KT 5SM RA BR OVC016 16/15 A2964 RMK PRESFR
                 SLP038 DENSITY ALT 500FT =
2018-09-22 06:21 METAR CYFC 220621Z AUTO 19017G29KT 6SM -RA BR OVC016 16/15 A2966 RMK SLP044
                 DENSITY ALT 500FT =
2018-09-22 06:15 METAR CYFC 220615Z AUTO 19017G24KT 5SM -RA BR OVC018 16/15 A2967 RMK SLP047
                 DENSITY ALT 500FT =
2018-09-22 06:02 METAR CYFC 220602Z AUTO 20021G26KT 9SM -RA OVC018 17/14 A2967 RMK PRESFR SLP049
                 DENSITY ALT 500FT =
2018-09-22 06:00 METAR CYFC 220600Z AUTO 20017G26KT 9SM OVC018 17/14 A2967 RMK PRESFR SLP049
                 DENSITY ALT 500FT =
2018-09-22 05:55 METAR CYFC 220555Z AUTO 19020G27KT 9SM OVC018 17/14 A2967 RMK SLP050 DENSITY ALT
                 500FT =
2018-09-22 05:41 METAR CYFC 220541Z AUTO 21019G27KT 9SM -RA OVC020 17/14 A2969 RMK PRESRR SLP055
                 DENSITY ALT 500FT =
2018-09-22 05:11 METAR CYFC 220511Z AUTO 20017G28KT 9SM BKN024 OVC034 17/14 A2970 RMK SLP060
                 DENSITY ALT 500FT =
2018-09-22 05:00 METAR CYFC 220500Z AUTO 20017G32KT 9SM SCT026 OVC034 17/13 A2970 RMK SLP060
                 DENSITY ALT 500FT =

Support USWX by starting your Amazon purchase here.